createdAt,value
2022-08-10T00:01:53.149Z,17.30
2022-08-10T00:04:22.810Z,17.40
2022-08-10T00:06:53.080Z,17.40
2022-08-10T00:09:21.901Z,17.50
2022-08-10T00:11:50.503Z,17.40
2022-08-10T00:14:19.294Z,17.20
2022-08-10T00:16:49.347Z,17.20
2022-08-10T00:19:18.151Z,17.30
2022-08-10T00:21:47.420Z,17.40
2022-08-10T00:24:16.985Z,17.40
2022-08-10T00:27:58.657Z,17.30
2022-08-10T00:29:34.653Z,17.30
2022-08-10T00:32:05.088Z,17.20
2022-08-10T00:34:34.636Z,17.10
2022-08-10T00:37:03.270Z,16.90
2022-08-10T00:39:34.538Z,16.70
2022-08-10T00:42:08.276Z,16.70
2022-08-10T00:44:38.710Z,16.80
2022-08-10T00:47:22.727Z,16.90
2022-08-10T00:49:58.159Z,16.90
2022-08-10T00:52:28.554Z,16.70
2022-08-10T00:54:57.582Z,16.40
2022-08-10T00:57:26.750Z,16.30
2022-08-10T00:59:59.322Z,16.40
2022-08-10T01:02:32.380Z,16.50
2022-08-10T01:05:03.456Z,16.60
2022-08-10T01:07:51.914Z,16.60
2022-08-10T01:10:32.527Z,16.80
2022-08-10T01:13:07.063Z,16.80
2022-08-10T01:15:44.707Z,16.90
2022-08-10T01:18:18.698Z,16.90
2022-08-10T01:20:56.114Z,16.80
2022-08-10T01:23:51.585Z,16.70
2022-08-10T01:26:32.142Z,16.70
2022-08-10T01:29:28.670Z,16.70
2022-08-10T01:32:01.263Z,16.70
2022-08-10T01:34:34.806Z,16.70
2022-08-10T01:37:06.642Z,16.70
2022-08-10T01:39:39.310Z,16.70
2022-08-10T01:42:09.000Z,16.60
2022-08-10T01:44:43.476Z,16.40
2022-08-10T01:47:31.582Z,16.40
2022-08-10T01:50:03.648Z,16.40
2022-08-10T01:52:33.130Z,16.50
2022-08-10T01:55:01.742Z,16.50
2022-08-10T01:57:33.828Z,16.40
2022-08-10T02:00:04.208Z,16.30
2022-08-10T02:02:33.070Z,16.40
2022-08-10T02:05:04.999Z,16.50
2022-08-10T02:07:36.354Z,16.40
2022-08-10T02:10:10.163Z,16.30
2022-08-10T02:12:39.529Z,16.00
2022-08-10T02:15:13.590Z,16.00
2022-08-10T02:17:59.653Z,16.10
2022-08-10T02:20:34.203Z,15.90
2022-08-10T02:23:04.641Z,16.00
2022-08-10T02:25:42.121Z,16.00
2022-08-10T02:28:29.834Z,15.90
2022-08-10T02:31:06.241Z,15.90
2022-08-10T02:33:36.979Z,15.90
2022-08-10T02:36:07.850Z,15.80
2022-08-10T02:38:58.158Z,15.90
2022-08-10T02:45:12.731Z,16.00
2022-08-10T02:45:18.780Z,16.00
2022-08-10T02:47:23.757Z,16.10
2022-08-10T02:50:01.145Z,16.00
2022-08-10T02:52:33.468Z,16.00
2022-08-10T02:55:17.568Z,15.90
2022-08-10T02:58:16.767Z,15.90
2022-08-10T03:00:45.555Z,15.80
2022-08-10T03:03:20.455Z,15.50
2022-08-10T03:05:50.734Z,15.60
2022-08-10T03:08:22.535Z,15.70
2022-08-10T03:10:51.189Z,15.60
2022-08-10T03:13:20.763Z,15.60
2022-08-10T03:15:49.924Z,15.60
2022-08-10T03:18:20.267Z,15.40
2022-08-10T03:20:49.065Z,15.40
2022-08-10T03:23:19.356Z,15.40
2022-08-10T03:25:53.032Z,15.40
2022-08-10T03:28:24.721Z,15.50
2022-08-10T03:30:53.932Z,15.50
2022-08-10T03:33:24.538Z,15.20
2022-08-10T03:36:43.571Z,15.00
2022-08-10T03:38:43.650Z,14.90
2022-08-10T03:41:16.415Z,15.10
2022-08-10T03:43:46.223Z,15.20
2022-08-10T03:46:15.572Z,15.30
2022-08-10T03:48:49.701Z,15.40
2022-08-10T03:51:19.299Z,15.40
2022-08-10T03:54:06.086Z,15.70
2022-08-10T03:56:37.510Z,16.10
2022-08-10T03:59:07.422Z,16.50
2022-08-10T04:02:44.143Z,16.80
2022-08-10T04:04:26.419Z,17.10
2022-08-10T04:06:56.621Z,17.40
2022-08-10T04:09:29.642Z,17.60
2022-08-10T04:12:11.983Z,17.80
2022-08-10T04:14:49.349Z,17.90
2022-08-10T04:17:18.754Z,18.10
2022-08-10T04:20:13.332Z,18.20
2022-08-10T04:22:43.036Z,18.30
2022-08-10T04:25:12.104Z,18.40
2022-08-10T04:27:40.653Z,18.50
2022-08-10T04:30:10.167Z,18.50
2022-08-10T04:32:39.071Z,18.60
2022-08-10T04:35:12.717Z,18.70
2022-08-10T04:37:43.319Z,18.80
2022-08-10T04:40:28.495Z,18.80
2022-08-10T04:43:01.380Z,18.90
2022-08-10T04:45:48.327Z,19.00
2022-08-10T04:48:41.170Z,19.00
2022-08-10T04:51:18.388Z,19.00
2022-08-10T04:54:04.944Z,19.10
2022-08-10T04:56:37.258Z,19.10
2022-08-10T04:59:06.779Z,19.10
2022-08-10T05:02:22.081Z,19.20
2022-08-10T05:04:37.604Z,19.20
2022-08-10T05:07:10.742Z,19.20
2022-08-10T05:10:01.557Z,19.30
2022-08-10T05:12:29.353Z,19.30
2022-08-10T05:14:58.086Z,19.40
2022-08-10T05:17:26.755Z,19.40
2022-08-10T05:20:04.201Z,19.40
2022-08-10T05:22:40.853Z,19.40
2022-08-10T05:25:11.975Z,19.10
2022-08-10T05:27:41.252Z,18.80
2022-08-10T05:30:13.360Z,18.50
2022-08-10T05:32:56.339Z,18.30
2022-08-10T05:35:28.818Z,18.10
2022-08-10T05:38:19.664Z,17.80
2022-08-10T05:40:48.558Z,17.70
2022-08-10T05:43:25.784Z,17.70
2022-08-10T05:46:19.143Z,17.70
2022-08-10T05:48:57.589Z,18.00
2022-08-10T05:51:29.659Z,18.30
2022-08-10T05:54:04.873Z,18.70
2022-08-10T05:56:53.391Z,19.00
2022-08-10T06:00:33.201Z,19.40
2022-08-10T06:02:31.946Z,20.00
2022-08-10T06:05:09.244Z,20.40
2022-08-10T06:07:48.986Z,20.90
2022-08-10T06:10:31.678Z,21.20
2022-08-10T06:13:26.854Z,21.60
2022-08-10T06:16:02.202Z,21.90
2022-08-10T06:18:31.084Z,22.10
2022-08-10T06:21:00.577Z,22.00
2022-08-10T06:23:30.644Z,22.00
2022-08-10T06:26:09.554Z,22.10
2022-08-10T06:29:01.914Z,22.40
2022-08-10T06:31:47.130Z,22.50
2022-08-10T06:34:20.914Z,22.60
2022-08-10T06:36:49.551Z,23.00
2022-08-10T06:39:32.931Z,23.40
2022-08-10T06:42:16.262Z,23.60
2022-08-10T06:44:54.337Z,23.70
2022-08-10T06:47:27.007Z,23.90
2022-08-10T06:49:59.808Z,24.00
2022-08-10T06:52:31.131Z,24.20
2022-08-10T06:55:00.680Z,24.40
2022-08-10T06:57:32.787Z,24.60
2022-08-10T07:00:02.617Z,24.80
2022-08-10T07:02:34.063Z,24.70
2022-08-10T07:05:04.418Z,24.80
2022-08-10T07:07:36.986Z,25.00
2022-08-10T07:10:06.105Z,25.10
2022-08-10T07:12:37.163Z,25.30
2022-08-10T07:15:08.586Z,25.40
2022-08-10T07:17:39.719Z,25.40
2022-08-10T07:20:10.365Z,25.60
2022-08-10T07:23:54.138Z,25.80
2022-08-10T07:25:28.868Z,26.10
2022-08-10T07:28:01.959Z,26.20
2022-08-10T07:30:32.876Z,26.10
2022-08-10T07:33:02.961Z,26.00
2022-08-10T07:35:42.066Z,25.90
2022-08-10T07:38:18.996Z,25.90
2022-08-10T07:40:49.652Z,26.00
2022-08-10T07:43:23.183Z,25.90
2022-08-10T07:45:52.044Z,25.90
2022-08-10T07:48:24.161Z,25.90
2022-08-10T07:50:57.879Z,25.80
2022-08-10T07:53:28.597Z,25.80
2022-08-10T07:56:05.147Z,25.80
2022-08-10T07:58:52.014Z,25.80
2022-08-10T08:01:24.167Z,25.90
2022-08-10T08:04:05.531Z,26.20
2022-08-10T08:06:42.232Z,26.40
2022-08-10T08:09:11.417Z,26.60
2022-08-10T08:11:40.796Z,26.60
2022-08-10T08:14:11.819Z,26.60
2022-08-10T08:16:43.702Z,26.60
2022-08-10T08:19:37.990Z,26.40
2022-08-10T08:24:09.974Z,26.30
2022-08-10T08:24:52.491Z,26.30
2022-08-10T08:27:21.814Z,26.20
2022-08-10T08:29:53.516Z,26.00
2022-08-10T08:32:23.627Z,25.90
2022-08-10T08:34:56.092Z,25.80
2022-08-10T08:38:33.327Z,25.70
2022-08-10T08:40:20.166Z,25.70
2022-08-10T08:43:10.544Z,25.70
2022-08-10T08:46:01.532Z,25.60
2022-08-10T08:48:47.473Z,25.60
2022-08-10T08:52:06.269Z,25.50
2022-08-10T08:54:22.208Z,25.50
2022-08-10T08:56:57.635Z,25.40
2022-08-10T08:59:38.487Z,25.40
2022-08-10T09:02:19.656Z,25.40
2022-08-10T09:05:08.537Z,25.40
2022-08-10T09:08:02.250Z,25.30
2022-08-10T09:10:38.809Z,25.20
2022-08-10T09:13:19.094Z,25.20
2022-08-10T09:15:56.411Z,25.30
2022-08-10T09:18:35.442Z,25.40
2022-08-10T09:21:10.420Z,25.40
2022-08-10T09:24:01.956Z,25.30
2022-08-10T09:26:40.120Z,25.30
2022-08-10T09:29:12.466Z,25.30
2022-08-10T09:32:55.995Z,25.30
2022-08-10T09:36:20.491Z,25.30
2022-08-10T09:38:02.483Z,25.30
2022-08-10T09:41:02.255Z,25.30
2022-08-10T09:43:36.468Z,25.40
2022-08-10T09:46:12.807Z,25.30
2022-08-10T09:48:48.855Z,25.30
2022-08-10T09:51:46.654Z,25.30
2022-08-10T09:54:31.220Z,25.40
2022-08-10T09:57:45.100Z,25.40
2022-08-10T10:00:03.379Z,25.30
2022-08-10T10:02:38.996Z,25.10
2022-08-10T10:05:20.471Z,25.20
2022-08-10T10:07:55.210Z,25.20
2022-08-10T10:10:27.934Z,25.20
2022-08-10T10:13:00.290Z,25.20
2022-08-10T10:15:34.871Z,25.20
2022-08-10T10:18:25.579Z,25.10
2022-08-10T10:21:01.793Z,25.10
2022-08-10T10:23:40.131Z,25.10
2022-08-10T10:26:19.128Z,25.20
2022-08-10T10:31:54.137Z,25.30
2022-08-10T10:34:29.430Z,25.20
2022-08-10T10:36:58.605Z,25.10
2022-08-10T10:39:30.124Z,25.00
2022-08-10T10:42:23.347Z,24.90
2022-08-10T10:45:12.367Z,24.90
2022-08-10T10:47:55.268Z,24.90
2022-08-10T10:50:28.423Z,25.00
2022-08-10T10:53:04.747Z,25.10
2022-08-10T10:56:13.884Z,25.30
2022-08-10T10:58:40.587Z,25.20
2022-08-10T11:01:23.097Z,25.30
2022-08-10T11:03:59.888Z,25.40
2022-08-10T11:06:40.739Z,25.40
2022-08-10T11:10:07.914Z,25.40
2022-08-10T11:12:08.310Z,25.40
2022-08-10T11:14:45.832Z,25.50
2022-08-10T11:17:18.749Z,25.50
2022-08-10T11:20:02.226Z,25.60
2022-08-10T11:22:37.637Z,25.70
2022-08-10T11:25:12.703Z,25.80
2022-08-10T11:27:50.015Z,25.70
2022-08-10T11:30:21.272Z,25.80
2022-08-10T11:33:10.058Z,25.80
2022-08-10T11:35:42.746Z,25.70
2022-08-10T11:38:34.159Z,25.80
2022-08-10T11:41:12.790Z,25.90
2022-08-10T11:44:06.523Z,25.80
2022-08-10T11:46:37.754Z,25.80
2022-08-10T11:49:11.324Z,25.70
2022-08-10T11:51:45.050Z,25.80
2022-08-10T11:54:22.979Z,25.70
2022-08-10T11:56:57.236Z,25.90
2022-08-10T11:59:51.139Z,25.90
2022-08-10T12:02:30.971Z,26.00
2022-08-10T12:05:02.477Z,26.00
2022-08-10T12:08:54.647Z,26.10
2022-08-10T12:10:22.094Z,26.10
2022-08-10T12:12:55.898Z,26.20
2022-08-10T12:15:33.965Z,26.20
2022-08-10T12:18:05.023Z,26.20
2022-08-10T12:20:37.086Z,26.20
2022-08-10T12:23:12.211Z,26.20
2022-08-10T12:25:55.724Z,26.20
2022-08-10T12:28:51.554Z,26.10
2022-08-10T12:31:26.389Z,26.10
2022-08-10T12:34:05.655Z,26.10
2022-08-10T12:36:39.286Z,26.20
2022-08-10T12:39:12.497Z,26.20
2022-08-10T12:41:45.231Z,26.20
2022-08-10T12:44:17.648Z,26.20
2022-08-10T12:46:53.295Z,26.20
2022-08-10T12:49:27.927Z,26.20
2022-08-10T12:52:02.262Z,26.20
2022-08-10T12:54:36.185Z,26.20
2022-08-10T12:57:09.192Z,26.20
2022-08-10T12:59:43.230Z,26.40
2022-08-10T13:02:22.653Z,26.40
2022-08-10T13:04:51.947Z,26.40
2022-08-10T13:08:24.578Z,26.50
2022-08-10T13:10:16.281Z,26.50
2022-08-10T13:12:47.940Z,26.50
2022-08-10T13:15:45.896Z,26.50
2022-08-10T13:18:17.748Z,26.50
2022-08-10T13:20:51.992Z,26.50
2022-08-10T13:23:22.656Z,26.60
2022-08-10T13:25:53.696Z,26.60
2022-08-10T13:28:35.926Z,26.70
2022-08-10T13:31:11.277Z,26.70
2022-08-10T13:34:39.631Z,26.70
2022-08-10T13:36:39.044Z,26.80
2022-08-10T13:39:08.787Z,26.80
2022-08-10T13:41:41.198Z,26.70
2022-08-10T13:44:12.334Z,26.60
2022-08-10T13:46:42.401Z,26.60
2022-08-10T13:49:15.044Z,26.60
2022-08-10T13:51:57.111Z,26.50
2022-08-10T13:54:29.660Z,26.50
2022-08-10T13:56:59.252Z,26.60
2022-08-10T14:00:33.659Z,26.50
2022-08-10T14:02:32.843Z,26.50
2022-08-10T14:05:03.555Z,26.50
2022-08-10T14:07:33.342Z,26.50
2022-08-10T14:10:07.389Z,26.40
2022-08-10T14:12:37.376Z,26.30
2022-08-10T14:15:08.823Z,26.20
2022-08-10T14:17:44.146Z,26.10
2022-08-10T14:20:20.864Z,26.10
2022-08-10T14:22:50.442Z,26.00
2022-08-10T14:25:18.997Z,25.90
2022-08-10T14:28:02.116Z,25.90
2022-08-10T14:30:33.517Z,25.90
2022-08-10T14:33:04.365Z,26.00
2022-08-10T14:36:21.954Z,26.10
2022-08-10T14:38:30.992Z,26.20
2022-08-10T14:41:02.551Z,26.20
2022-08-10T14:43:40.610Z,26.30
2022-08-10T14:46:11.888Z,26.30
2022-08-10T14:48:47.753Z,26.30
2022-08-10T14:51:19.691Z,26.30
2022-08-10T14:53:54.158Z,26.30
2022-08-10T14:56:27.822Z,26.30
2022-08-10T14:59:06.133Z,26.20
2022-08-10T15:02:01.208Z,26.20
2022-08-10T15:04:28.540Z,26.10
2022-08-10T15:07:02.573Z,26.10
2022-08-10T15:10:00.072Z,26.00
2022-08-10T15:12:26.376Z,26.00
2022-08-10T15:14:56.963Z,25.90
2022-08-10T15:17:27.653Z,25.80
2022-08-10T15:20:02.600Z,25.70
2022-08-10T15:22:47.057Z,25.70
2022-08-10T15:25:25.524Z,25.60
2022-08-10T15:27:58.050Z,25.50
2022-08-10T15:30:40.775Z,25.50
2022-08-10T15:34:02.179Z,25.50
2022-08-10T15:37:30.752Z,25.50
2022-08-10T15:40:22.083Z,25.30
2022-08-10T15:42:35.404Z,25.30
2022-08-10T15:45:04.851Z,25.30
2022-08-10T15:47:44.811Z,25.30
2022-08-10T15:50:18.347Z,25.20
2022-08-10T15:53:00.505Z,25.20
2022-08-10T15:55:43.647Z,25.20
2022-08-10T15:58:19.786Z,25.10
2022-08-10T16:00:51.205Z,25.10
2022-08-10T16:03:25.949Z,25.10
2022-08-10T16:06:02.027Z,25.10
2022-08-10T16:08:56.880Z,25.10
2022-08-10T16:11:37.655Z,25.10
2022-08-10T16:14:09.169Z,25.10
2022-08-10T16:16:38.620Z,25.10
2022-08-10T16:19:13.513Z,25.00
2022-08-10T16:22:01.747Z,25.00
2022-08-10T16:24:35.773Z,25.00
2022-08-10T16:27:07.522Z,25.00
2022-08-10T16:29:56.024Z,25.00
2022-08-10T16:32:26.326Z,25.00
2022-08-10T16:34:55.787Z,25.00
2022-08-10T16:37:24.626Z,25.00
2022-08-10T16:39:58.008Z,25.00
2022-08-10T16:42:31.588Z,25.00
2022-08-10T16:45:04.886Z,25.00
2022-08-10T16:47:34.992Z,25.00
2022-08-10T16:50:07.298Z,24.90
2022-08-10T16:52:36.284Z,24.90
2022-08-10T16:55:17.129Z,24.90
2022-08-10T16:57:57.469Z,24.90
2022-08-10T17:00:27.657Z,24.80
2022-08-10T17:03:00.188Z,24.80
2022-08-10T17:06:09.803Z,24.80
2022-08-10T17:08:21.073Z,24.80
2022-08-10T17:10:51.601Z,24.70
2022-08-10T17:13:22.723Z,24.70
2022-08-10T17:15:54.306Z,24.70
2022-08-10T17:18:28.571Z,24.60
2022-08-10T17:20:59.675Z,24.60
2022-08-10T17:23:30.398Z,24.60
2022-08-10T17:26:02.925Z,24.50
2022-08-10T17:28:35.939Z,24.50
2022-08-10T17:31:39.767Z,24.50
2022-08-10T17:34:01.165Z,24.40
2022-08-10T17:36:33.711Z,24.40
2022-08-10T17:39:03.930Z,24.30
2022-08-10T17:41:33.688Z,24.30
2022-08-10T17:44:05.825Z,24.20
2022-08-10T17:46:36.301Z,24.20
2022-08-10T17:49:08.016Z,24.20
2022-08-10T17:51:37.437Z,24.20
2022-08-10T17:54:09.068Z,24.10
2022-08-10T17:56:38.089Z,24.10
2022-08-10T17:59:17.351Z,23.90
2022-08-10T18:01:58.939Z,23.80
2022-08-10T18:04:41.580Z,23.70
2022-08-10T18:07:11.935Z,23.60
2022-08-10T18:09:43.346Z,23.50
2022-08-10T18:12:18.469Z,23.40
2022-08-10T18:14:50.961Z,23.30
2022-08-10T18:17:21.903Z,23.30
2022-08-10T18:19:54.487Z,23.10
2022-08-10T18:22:24.303Z,23.00
2022-08-10T18:24:53.560Z,22.90
2022-08-10T18:27:22.895Z,22.90
2022-08-10T18:30:14.786Z,22.80
2022-08-10T18:32:49.533Z,22.80
2022-08-10T18:35:20.021Z,22.70
2022-08-10T18:37:51.309Z,22.70
2022-08-10T18:40:20.454Z,22.60
2022-08-10T18:42:53.567Z,22.50
2022-08-10T18:45:27.822Z,22.50
2022-08-10T18:48:01.772Z,22.40
2022-08-10T18:50:32.495Z,22.30
2022-08-10T18:53:02.518Z,22.30
2022-08-10T18:55:39.817Z,22.30
2022-08-10T18:58:51.344Z,22.20
2022-08-10T19:01:35.082Z,22.20
2022-08-10T19:04:28.701Z,22.20
2022-08-10T19:07:16.805Z,22.10
2022-08-10T19:09:53.512Z,22.00
2022-08-10T19:12:43.098Z,22.00
2022-08-10T19:15:24.130Z,21.90
2022-08-10T19:18:08.276Z,21.90
2022-08-10T19:20:40.782Z,21.80
2022-08-10T19:23:27.775Z,21.80
2022-08-10T19:26:43.041Z,21.80
2022-08-10T19:29:04.844Z,21.70
2022-08-10T19:31:44.982Z,21.70
2022-08-10T19:34:34.876Z,21.70
2022-08-10T19:37:10.707Z,21.60
2022-08-10T19:39:53.350Z,21.50
2022-08-10T19:42:30.131Z,21.50
2022-08-10T19:45:05.999Z,21.50
2022-08-10T19:47:39.853Z,21.50
2022-08-10T19:50:14.463Z,21.40
2022-08-10T19:52:50.171Z,21.40
2022-08-10T19:55:22.979Z,21.40
2022-08-10T19:57:55.930Z,21.40
2022-08-10T20:00:29.259Z,21.40
2022-08-10T20:03:12.492Z,21.40
2022-08-10T20:06:18.099Z,21.40
2022-08-10T20:08:45.899Z,21.40
2022-08-10T20:11:45.917Z,21.40
2022-08-10T20:14:22.163Z,21.40
2022-08-10T20:16:55.921Z,21.30
2022-08-10T20:19:52.813Z,21.30
2022-08-10T20:22:28.786Z,21.20
2022-08-10T20:25:03.237Z,21.10
2022-08-10T20:27:58.200Z,21.10
2022-08-10T20:30:25.287Z,21.00
2022-08-10T20:32:58.322Z,21.00
2022-08-10T20:35:28.191Z,20.90
2022-08-10T20:38:06.030Z,20.80
2022-08-10T20:40:42.968Z,20.70
2022-08-10T20:43:21.626Z,20.70
2022-08-10T20:46:08.321Z,20.70
2022-08-10T20:48:41.984Z,20.70
2022-08-10T20:51:22.452Z,20.80
2022-08-10T20:53:57.220Z,20.90
2022-08-10T20:56:43.838Z,20.80
2022-08-10T20:59:33.660Z,20.80
2022-08-10T21:02:26.661Z,20.80
2022-08-10T21:04:59.218Z,20.80
2022-08-10T21:08:00.938Z,20.80
2022-08-10T21:10:42.910Z,20.80
2022-08-10T21:13:22.280Z,20.70
2022-08-10T21:16:02.031Z,20.70
2022-08-10T21:18:51.911Z,20.70
2022-08-10T21:21:41.165Z,20.60
2022-08-10T21:24:13.667Z,20.60
2022-08-10T21:26:51.113Z,20.60
2022-08-10T21:29:39.627Z,20.50
2022-08-10T21:32:17.943Z,20.40
2022-08-10T21:35:08.969Z,20.30
2022-08-10T21:37:42.790Z,20.20
2022-08-10T21:41:18.082Z,20.20
2022-08-10T21:44:02.699Z,20.20
2022-08-10T21:46:59.391Z,20.10
2022-08-10T21:49:57.455Z,20.00
2022-08-10T21:53:00.742Z,19.80
2022-08-10T21:56:00.377Z,19.70
2022-08-10T21:58:51.232Z,19.70
2022-08-10T22:01:45.884Z,19.60
2022-08-10T22:04:38.897Z,19.60
2022-08-10T22:07:26.919Z,19.60
2022-08-10T22:10:14.393Z,19.50
2022-08-10T22:13:08.625Z,19.50
2022-08-10T22:16:05.363Z,19.50
2022-08-10T22:19:03.609Z,19.50
2022-08-10T22:22:02.097Z,19.50
2022-08-10T22:25:06.930Z,19.30
2022-08-10T22:28:03.541Z,19.20
2022-08-10T22:31:22.835Z,19.00
2022-08-10T22:34:02.667Z,18.90
2022-08-10T22:37:09.012Z,19.00
2022-08-10T22:40:13.051Z,19.00
2022-08-10T22:43:10.472Z,18.90
2022-08-10T22:46:03.947Z,18.80
2022-08-10T22:48:51.029Z,18.80
2022-08-10T22:51:24.517Z,18.70
2022-08-10T22:54:30.786Z,18.80
2022-08-10T22:57:19.367Z,18.80
2022-08-10T22:59:49.304Z,18.50
2022-08-10T23:02:29.226Z,18.30
2022-08-10T23:05:04.834Z,18.30
2022-08-10T23:07:38.130Z,18.40
2022-08-10T23:10:09.646Z,18.40
2022-08-10T23:12:41.807Z,18.40
2022-08-10T23:15:39.089Z,18.30
2022-08-10T23:18:26.895Z,18.20
2022-08-10T23:20:57.148Z,18.10
2022-08-10T23:23:29.809Z,18.10
2022-08-10T23:26:00.791Z,18.10
2022-08-10T23:28:38.975Z,18.10
2022-08-10T23:31:58.347Z,18.10
2022-08-10T23:34:13.206Z,18.10
2022-08-10T23:36:42.939Z,18.20
2022-08-10T23:39:26.577Z,18.20
2022-08-10T23:42:04.603Z,18.20
2022-08-10T23:44:36.728Z,18.00
2022-08-10T23:47:05.803Z,18.00
2022-08-10T23:49:36.754Z,18.00
2022-08-10T23:52:13.420Z,17.80
2022-08-10T23:54:50.165Z,17.80
2022-08-10T23:57:21.322Z,17.80
2022-08-10T23:59:55.294Z,17.90
